Time;durP1;ratioP1;P1;durP2;ratioP2;P2;SDS_P1;SDS_P2;PMS_P1;PMS_P2;Temp;Humidity;BMP_temperature;BMP_pressure;BME280_temperature;BME280_humidity;BME280_pressure;Samples;Min_cycle;Max_cycle;Signal;HPM_P1;HPM_P2
2022/09/10 00:01:43;;;;;;;2.00;1.30;;;24.10;60.00;;;;;;220996;1265;24089;-56
2022/09/10 00:06:49;;;;;;;2.30;1.30;;;24.20;60.30;;;;;;221223;1265;23912;-55
2022/09/10 00:11:56;;;;;;;2.00;1.30;;;24.10;60.30;;;;;;221468;1265;23169;-53
2022/09/10 00:17:00;;;;;;;2.00;1.40;;;24.10;60.00;;;;;;221133;1265;22537;-52
2022/09/10 00:22:04;;;;;;;1.80;1.20;;;24.10;60.00;;;;;;221492;1265;24305;-56
2022/09/10 00:27:08;;;;;;;2.20;1.50;;;24.10;60.00;;;;;;221159;1265;24382;-54
2022/09/10 00:32:13;;;;;;;1.80;1.30;;;24.10;60.00;;;;;;221090;1265;24299;-56
2022/09/10 00:37:17;;;;;;;1.80;1.30;;;24.10;60.00;;;;;;221493;1265;24438;-53
2022/09/10 00:42:21;;;;;;;2.00;1.30;;;24.10;60.00;;;;;;221264;1265;22531;-55
2022/09/10 00:47:33;;;;;;;2.10;1.40;;;24.10;60.10;;;;;;221237;1265;22518;-55
2022/09/10 00:52:38;;;;;;;2.00;1.30;;;24.10;60.10;;;;;;221385;1265;22590;-54
2022/09/10 00:57:46;;;;;;;1.80;1.20;;;24.10;60.10;;;;;;221388;1265;24412;-54
2022/09/10 01:02:50;;;;;;;1.90;1.10;;;24.10;60.10;;;;;;221427;1265;22558;-52
2022/09/10 01:07:56;;;;;;;1.80;1.20;;;24.10;60.20;;;;;;221451;1265;22704;-54
2022/09/10 01:13:29;;;;;;;2.10;1.30;;;24.00;60.10;;;;;;220830;1268;24389;-54
2022/09/10 01:18:43;;;;;;;1.80;1.10;;;24.10;60.50;;;;;;219555;1264;2055177;-58
2022/09/10 01:24:15;;;;;;;1.90;1.30;;;24.10;60.20;;;;;;221322;1265;22579;-56
2022/09/10 01:29:51;;;;;;;2.00;1.40;;;24.10;60.20;;;;;;221102;1265;22528;-52
2022/09/10 01:35:04;;;;;;;1.60;1.10;;;24.10;60.30;;;;;;220516;1268;22703;-56
2022/09/10 01:40:10;;;;;;;1.80;1.30;;;24.00;60.20;;;;;;221177;1265;22563;-53
2022/09/10 01:45:14;;;;;;;1.60;1.20;;;24.00;60.30;;;;;;220528;1268;23043;-54
2022/09/10 01:50:34;;;;;;;1.90;1.30;;;24.10;60.20;;;;;;221203;1265;22524;-52
2022/09/10 01:55:59;;;;;;;2.50;1.40;;;24.00;60.80;;;;;;221220;1265;25222;-53
2022/09/10 02:01:10;;;;;;;1.90;1.30;;;24.00;60.20;;;;;;221333;1265;25286;-54
2022/09/10 02:06:18;;;;;;;2.00;1.10;;;24.00;60.20;;;;;;221113;1265;22555;-52
2022/09/10 02:11:23;;;;;;;2.10;1.30;;;24.00;60.30;;;;;;220932;1266;25495;-54
2022/09/10 02:16:36;;;;;;;1.70;1.10;;;24.00;60.30;;;;;;220929;1265;22633;-54
2022/09/10 02:21:40;;;;;;;1.90;1.20;;;24.00;60.30;;;;;;221108;1268;25863;-53
2022/09/10 02:26:46;;;;;;;1.90;1.20;;;23.90;60.20;;;;;;221531;1265;25228;-54
2022/09/10 02:31:50;;;;;;;2.00;1.20;;;24.00;60.30;;;;;;221333;1265;22528;-53
2022/09/10 02:36:56;;;;;;;1.60;1.00;;;23.90;60.30;;;;;;221198;1265;22537;-57
2022/09/10 02:42:05;;;;;;;1.80;1.20;;;23.90;60.30;;;;;;221142;1266;22547;-52
2022/09/10 02:47:11;;;;;;;2.10;1.20;;;23.90;60.30;;;;;;221054;1265;25539;-55
2022/09/10 02:52:16;;;;;;;3.10;1.10;;;23.90;60.70;;;;;;221419;1265;22537;-52
2022/09/10 02:57:20;;;;;;;1.70;1.10;;;23.90;60.30;;;;;;220964;1265;24166;-54
2022/09/10 03:02:24;;;;;;;2.00;1.10;;;23.90;60.30;;;;;;221088;1265;22523;-54
2022/09/10 03:07:31;;;;;;;1.70;1.10;;;23.90;60.40;;;;;;221209;1265;22540;-55
2022/09/10 03:12:38;;;;;;;1.80;1.10;;;23.90;60.40;;;;;;221406;1265;22540;-54
2022/09/10 03:17:41;;;;;;;1.40;1.00;;;23.90;60.40;;;;;;221309;1265;24855;-55
2022/09/10 03:22:46;;;;;;;1.60;1.10;;;23.90;60.70;;;;;;221298;1265;22566;-55
2022/09/10 03:27:51;;;;;;;2.40;1.20;;;23.90;60.50;;;;;;221351;1265;24195;-53
2022/09/10 03:32:54;;;;;;;1.70;1.10;;;23.90;60.40;;;;;;221266;1266;25301;-52
2022/09/10 03:37:59;;;;;;;2.70;0.90;;;23.90;60.80;;;;;;221202;1265;24289;-53
2022/09/10 03:43:02;;;;;;;2.00;1.30;;;23.90;60.50;;;;;;221192;1265;22516;-54
2022/09/10 03:48:06;;;;;;;2.00;1.00;;;23.90;60.50;;;;;;221433;1265;22557;-54
2022/09/10 03:53:11;;;;;;;2.00;1.20;;;23.80;60.50;;;;;;221197;1265;22563;-54
2022/09/10 03:58:16;;;;;;;1.60;1.10;;;23.90;60.50;;;;;;221338;1265;22546;-54
2022/09/10 04:03:21;;;;;;;1.90;1.10;;;23.90;60.50;;;;;;221251;1265;25596;-52
2022/09/10 04:08:24;;;;;;;2.00;1.10;;;23.90;60.50;;;;;;221270;1265;25280;-56
2022/09/10 04:13:30;;;;;;;1.80;1.30;;;23.80;60.50;;;;;;220953;1265;24219;-54
2022/09/10 04:18:34;;;;;;;2.10;1.30;;;23.80;60.50;;;;;;221209;1265;22542;-55
2022/09/10 04:23:41;;;;;;;2.50;1.10;;;23.80;60.50;;;;;;221476;1265;26689;-53
2022/09/10 04:28:45;;;;;;;2.00;1.20;;;23.80;60.30;;;;;;221245;1265;26717;-54
2022/09/10 04:33:51;;;;;;;1.70;1.10;;;23.80;60.10;;;;;;220891;1265;22561;-53
2022/09/10 04:38:58;;;;;;;1.90;1.30;;;23.80;60.50;;;;;;221221;1265;22604;-53
2022/09/10 04:44:05;;;;;;;2.00;1.10;;;23.80;60.60;;;;;;221495;1265;22530;-53
2022/09/10 04:49:09;;;;;;;1.30;0.80;;;23.80;60.60;;;;;;220966;1265;22538;-54
2022/09/10 04:54:14;;;;;;;1.80;1.10;;;23.80;60.60;;;;;;221133;1265;25670;-54
2022/09/10 04:59:20;;;;;;;1.70;1.10;;;23.80;60.30;;;;;;220714;1266;22698;-55
2022/09/10 05:04:25;;;;;;;1.70;1.10;;;23.80;60.60;;;;;;221374;1265;24280;-56
2022/09/10 05:09:30;;;;;;;1.90;1.00;;;23.80;60.70;;;;;;221209;1265;23845;-54
2022/09/10 05:14:36;;;;;;;1.40;1.00;;;23.70;60.60;;;;;;221290;1265;25294;-53
2022/09/10 05:19:41;;;;;;;2.60;1.00;;;23.80;61.00;;;;;;220976;1265;25229;-54
2022/09/10 05:24:44;;;;;;;1.60;1.00;;;23.80;60.70;;;;;;221166;1265;22543;-53
2022/09/10 05:29:48;;;;;;;1.80;1.00;;;23.80;60.60;;;;;;221084;1266;22524;-55
2022/09/10 05:34:52;;;;;;;3.30;1.20;;;23.70;60.70;;;;;;221449;1265;22546;-53
2022/09/10 05:39:58;;;;;;;1.70;1.00;;;23.80;60.70;;;;;;221289;1265;24366;-52
2022/09/10 05:45:02;;;;;;;1.70;1.00;;;23.70;60.70;;;;;;221463;1266;22656;-55
2022/09/10 05:50:07;;;;;;;1.50;0.90;;;23.70;60.70;;;;;;221234;1265;22717;-56
2022/09/10 05:55:13;;;;;;;1.50;1.00;;;23.70;60.70;;;;;;221393;1265;25835;-54
2022/09/10 06:00:17;;;;;;;1.70;1.00;;;23.70;60.70;;;;;;221294;1265;24280;-55
2022/09/10 06:05:25;;;;;;;1.70;1.20;;;23.70;60.70;;;;;;221351;1265;22516;-56
2022/09/10 06:10:31;;;;;;;2.90;1.20;;;23.70;60.70;;;;;;221250;1265;25234;-54
2022/09/10 06:15:35;;;;;;;2.30;1.20;;;23.70;61.40;;;;;;221503;1265;22535;-56
2022/09/10 06:20:39;;;;;;;1.30;1.00;;;23.70;60.70;;;;;;220931;1265;22522;-53
2022/09/10 06:25:44;;;;;;;2.40;1.30;;;23.70;60.70;;;;;;221149;1266;22572;-53
2022/09/10 06:30:50;;;;;;;1.60;1.00;;;23.70;60.70;;;;;;221242;1265;24156;-56
2022/09/10 06:35:58;;;;;;;1.80;1.10;;;23.70;61.00;;;;;;221262;1265;24270;-55
2022/09/10 06:41:10;;;;;;;2.10;1.10;;;23.80;60.60;;;;;;221504;1265;23962;-56
2022/09/10 06:46:25;;;;;;;1.40;0.90;;;23.80;60.90;;;;;;221208;1265;22550;-54
2022/09/10 06:51:53;;;;;;;2.10;0.90;;;23.80;60.50;;;;;;221402;1265;22541;-56
2022/09/10 06:57:03;;;;;;;2.70;1.10;;;23.80;60.40;;;;;;221344;1265;22485;-55
2022/09/10 07:02:08;;;;;;;1.60;1.00;;;23.80;60.40;;;;;;220987;1265;24283;-54
2022/09/10 07:07:13;;;;;;;1.50;1.10;;;23.80;60.30;;;;;;221455;1265;24110;-49
2022/09/10 07:12:21;;;;;;;1.30;1.00;;;23.90;60.70;;;;;;221333;1265;24283;-56
2022/09/10 07:17:27;;;;;;;1.40;1.00;;;23.90;60.40;;;;;;221272;1265;25330;-53
2022/09/10 07:22:42;;;;;;;;;;;23.90;60.80;;;;;;221130;1265;24211;-56
2022/09/10 07:28:00;;;;;;;1.50;1.00;;;23.90;60.30;;;;;;221050;1265;24353;-57
2022/09/10 07:33:10;;;;;;;1.40;1.00;;;23.90;60.30;;;;;;221281;1265;22538;-55
2022/09/10 07:38:19;;;;;;;1.40;1.00;;;23.90;60.20;;;;;;220884;1268;24083;-55
2022/09/10 07:43:26;;;;;;;1.30;0.90;;;23.90;60.40;;;;;;221541;1265;23163;-55
2022/09/10 07:48:31;;;;;;;2.70;1.10;;;23.90;60.20;;;;;;221195;1265;22632;-55
2022/09/10 07:53:34;;;;;;;1.70;1.00;;;23.90;60.10;;;;;;221383;1265;22646;-55
2022/09/10 07:58:39;;;;;;;1.10;0.80;;;24.00;60.00;;;;;;221608;1265;24047;-56
2022/09/10 08:03:51;;;;;;;1.40;0.90;;;24.00;60.40;;;;;;221277;1265;22515;-57
2022/09/10 08:08:58;;;;;;;1.70;1.10;;;24.00;60.00;;;;;;221147;1265;25274;-56
2022/09/10 08:14:03;;;;;;;1.60;1.00;;;24.00;60.30;;;;;;221240;1265;22506;-55
2022/09/10 08:19:13;;;;;;;1.50;0.90;;;24.10;60.00;;;;;;221082;1265;25385;-55
2022/09/10 08:24:17;;;;;;;2.70;0.90;;;24.10;59.90;;;;;;221279;1265;22537;-56
2022/09/10 08:29:24;;;;;;;1.10;0.90;;;24.10;59.90;;;;;;221152;1266;25494;-55
2022/09/10 08:34:39;;;;;;;1.50;1.00;;;24.10;60.20;;;;;;221399;1265;22717;-56
2022/09/10 08:39:44;;;;;;;1.50;1.00;;;24.10;59.80;;;;;;221324;1265;22516;-56
2022/09/10 08:44:57;;;;;;;1.60;1.00;;;24.10;59.80;;;;;;221012;1265;22550;-53
2022/09/10 08:50:21;;;;;;;1.50;1.00;;;24.20;59.80;;;;;;221121;1265;24821;-53
2022/09/10 08:55:33;;;;;;;1.70;1.00;;;24.20;59.80;;;;;;220812;1265;22525;-56
2022/09/10 09:00:47;;;;;;;1.30;1.00;;;24.20;59.80;;;;;;221180;1265;24211;-53
2022/09/10 09:06:07;;;;;;;1.70;1.00;;;24.20;59.80;;;;;;221456;1265;22647;-54
2022/09/10 09:12:17;;;;;;;1.20;0.80;;;24.20;59.70;;;;;;220642;1268;22534;-55
2022/09/10 09:18:00;;;;;;;1.60;1.00;;;24.30;59.70;;;;;;220064;1272;25360;-54
2022/09/10 09:23:44;;;;;;;1.30;0.80;;;24.30;59.70;;;;;;220971;1265;24468;-55
2022/09/10 09:29:21;;;;;;;1.00;0.80;;;24.30;59.60;;;;;;221067;1265;22538;-52
2022/09/10 09:34:40;;;;;;;1.30;0.80;;;24.40;59.60;;;;;;221028;1265;24421;-58
2022/09/10 09:39:52;;;;;;;1.40;0.80;;;24.40;59.50;;;;;;221114;1265;22529;-57
2022/09/10 09:45:30;;;;;;;1.40;0.90;;;24.40;59.40;;;;;;221357;1265;23522;-53
2022/09/10 09:50:38;;;;;;;1.20;0.80;;;24.40;59.40;;;;;;221176;1265;22550;-54
2022/09/10 09:55:54;;;;;;;1.60;0.90;;;24.40;59.40;;;;;;221119;1265;22553;-55
2022/09/10 10:01:14;;;;;;;2.50;0.90;;;24.50;59.50;;;;;;221190;1265;22521;-55
2022/09/10 10:06:46;;;;;;;1.30;0.80;;;24.50;59.40;;;;;;221036;1265;24205;-53
2022/09/10 10:11:56;;;;;;;1.50;1.10;;;24.50;59.30;;;;;;221132;1265;24418;-56
2022/09/10 10:17:00;;;;;;;1.30;0.90;;;24.60;59.20;;;;;;221289;1265;25328;-55
2022/09/10 10:22:12;;;;;;;1.00;0.90;;;24.70;59.20;;;;;;221257;1265;22714;-57
2022/09/10 10:27:32;;;;;;;1.50;1.00;;;24.70;59.20;;;;;;221291;1265;25232;-56
2022/09/10 10:32:40;;;;;;;1.50;1.00;;;24.70;59.00;;;;;;221359;1265;25241;-53
2022/09/10 10:38:24;;;;;;;1.40;0.90;;;24.80;59.00;;;;;;221253;1265;22528;-55
2022/09/10 10:43:57;;;;;;;2.00;1.00;;;24.90;58.90;;;;;;221304;1265;22522;-54
2022/09/10 10:49:24;;;;;;;1.60;0.90;;;24.90;58.70;;;;;;221366;1265;22542;-56
2022/09/10 10:54:58;;;;;;;1.30;0.90;;;25.00;58.60;;;;;;221420;1265;22835;-54
2022/09/10 11:00:09;;;;;;;1.40;1.00;;;25.10;58.60;;;;;;221230;1265;22541;-54
2022/09/10 11:05:24;;;;;;;1.40;1.00;;;25.10;58.40;;;;;;221307;1265;25600;-55
2022/09/10 11:10:50;;;;;;;1.60;0.90;;;25.10;58.40;;;;;;221285;1265;22528;-52
2022/09/10 11:16:40;;;;;;;1.90;1.00;;;25.10;58.40;;;;;;221262;1265;22541;-53
2022/09/10 11:22:03;;;;;;;1.10;0.90;;;25.20;58.20;;;;;;220793;1265;22561;-54
2022/09/10 11:27:19;;;;;;;2.00;1.20;;;25.30;58.20;;;;;;221305;1265;22799;-54
2022/09/10 11:32:41;;;;;;;1.70;1.10;;;25.40;58.20;;;;;;221318;1265;22548;-55
2022/09/10 11:38:27;;;;;;;1.20;0.90;;;25.40;58.10;;;;;;221307;1265;25330;-53
2022/09/10 11:44:14;;;;;;;1.80;1.00;;;25.40;58.10;;;;;;221243;1265;23824;-53
2022/09/10 11:49:52;;;;;;;1.70;1.00;;;25.40;58.00;;;;;;221256;1265;25316;-54
2022/09/10 11:55:02;;;;;;;1.70;1.00;;;25.40;58.00;;;;;;221259;1263;22540;-54
2022/09/10 12:00:16;;;;;;;1.50;1.00;;;25.40;58.00;;;;;;221208;1265;22523;-55
2022/09/10 12:05:53;;;;;;;1.60;1.00;;;25.50;57.90;;;;;;221251;1265;23038;-54
2022/09/10 12:11:35;;;;;;;1.40;1.00;;;25.50;57.90;;;;;;221379;1265;25299;-56
2022/09/10 12:16:51;;;;;;;1.80;1.00;;;25.50;57.80;;;;;;221421;1265;22606;-56
2022/09/10 12:22:03;;;;;;;1.70;1.10;;;25.40;57.90;;;;;;220675;1265;22594;-55
2022/09/10 12:27:18;;;;;;;1.70;1.00;;;25.40;58.00;;;;;;221374;1265;24295;-55
2022/09/10 12:32:22;;;;;;;1.20;0.90;;;25.50;58.10;;;;;;221428;1265;25233;-56
2022/09/10 12:37:31;;;;;;;2.00;1.00;;;25.50;58.10;;;;;;221040;1265;22525;-54
2022/09/10 12:42:35;;;;;;;1.40;0.90;;;25.50;58.00;;;;;;221441;1265;22554;-54
2022/09/10 12:47:49;;;;;;;1.30;1.00;;;25.50;57.90;;;;;;221469;1265;22561;-57
2022/09/10 12:53:40;;;;;;;1.40;1.00;;;25.50;58.00;;;;;;221509;1265;24296;-57
2022/09/10 12:59:06;;;;;;;1.10;0.90;;;25.50;58.10;;;;;;221420;1265;22704;-55
2022/09/10 13:04:36;;;;;;;1.50;1.00;;;25.50;58.10;;;;;;221248;1265;22568;-54
2022/09/10 13:09:54;;;;;;;2.40;1.10;;;25.50;58.30;;;;;;221278;1265;24204;-53
2022/09/10 13:15:01;;;;;;;1.40;1.00;;;25.40;58.30;;;;;;221478;1265;22704;-55
2022/09/10 13:20:20;;;;;;;1.50;0.90;;;25.40;58.50;;;;;;220193;1265;1452921;-56
2022/09/10 13:25:35;;;;;;;1.80;1.10;;;25.40;59.00;;;;;;221322;1265;25174;-55
2022/09/10 13:30:40;;;;;;;2.20;1.10;;;25.40;58.50;;;;;;221018;1265;22541;-54
2022/09/10 13:36:10;;;;;;;1.50;0.90;;;25.30;58.50;;;;;;221171;1265;25235;-56
2022/09/10 13:41:51;;;;;;;1.30;0.90;;;25.30;59.10;;;;;;221264;1265;22557;-56
2022/09/10 13:47:21;;;;;;;1.70;1.10;;;25.30;58.60;;;;;;221556;1265;23951;-55
2022/09/10 13:52:33;;;;;;;1.30;0.90;;;25.30;59.00;;;;;;220881;1265;22703;-55
2022/09/10 13:57:43;;;;;;;1.60;0.90;;;25.20;58.60;;;;;;221182;1265;25218;-57
2022/09/10 14:02:51;;;;;;;1.70;1.10;;;25.20;58.60;;;;;;221455;1265;25342;-55
2022/09/10 14:08:00;;;;;;;1.80;1.00;;;25.20;58.90;;;;;;221526;1264;25330;-53
2022/09/10 14:13:04;;;;;;;1.30;0.90;;;25.20;58.20;;;;;;221000;1265;22553;-54
2022/09/10 14:18:09;;;;;;;1.40;1.10;;;25.20;58.60;;;;;;221244;1265;23945;-55
2022/09/10 14:23:15;;;;;;;1.50;1.10;;;25.30;59.00;;;;;;221394;1265;24214;-52
2022/09/10 14:28:26;;;;;;;1.70;0.90;;;25.20;58.90;;;;;;221202;1265;25226;-54
2022/09/10 14:33:38;;;;;;;2.20;1.10;;;25.20;58.60;;;;;;221473;1264;25483;-51
2022/09/10 14:39:06;;;;;;;1.50;0.90;;;25.20;59.00;;;;;;221346;1265;24328;-57
2022/09/10 14:44:26;;;;;;;1.30;0.90;;;25.10;58.60;;;;;;221214;1265;23900;-53
2022/09/10 14:49:32;;;;;;;1.60;1.00;;;25.20;59.10;;;;;;221469;1265;25424;-54
2022/09/10 14:54:36;;;;;;;1.50;1.20;;;25.10;59.10;;;;;;221359;1265;25369;-56
2022/09/10 14:59:46;;;;;;;2.20;1.10;;;25.10;58.80;;;;;;221037;1265;26431;-53
2022/09/10 15:04:52;;;;;;;2.50;1.00;;;25.10;58.40;;;;;;221003;1265;22613;-54
2022/09/10 15:10:04;;;;;;;1.90;1.00;;;25.10;58.80;;;;;;221460;1265;22521;-56
2022/09/10 15:15:15;;;;;;;1.60;1.00;;;25.10;58.80;;;;;;221349;1265;26618;-51
2022/09/10 15:20:20;;;;;;;1.20;0.90;;;25.10;58.80;;;;;;221131;1265;25300;-56
2022/09/10 15:25:46;;;;;;;2.90;1.00;;;25.10;59.10;;;;;;221102;1265;25258;-55
2022/09/10 15:30:50;;;;;;;1.50;1.00;;;25.10;58.80;;;;;;221143;1265;25279;-54
2022/09/10 15:35:54;;;;;;;1.40;0.90;;;25.10;58.80;;;;;;221073;1265;25409;-57
2022/09/10 15:41:07;;;;;;;1.30;0.90;;;25.10;59.10;;;;;;221426;1265;22534;-56
2022/09/10 15:46:12;;;;;;;1.70;1.00;;;25.10;58.90;;;;;;221284;1265;22548;-56
2022/09/10 15:51:23;;;;;;;1.70;0.80;;;25.10;59.00;;;;;;221267;1265;24387;-54
2022/09/10 15:56:26;;;;;;;2.10;1.10;;;25.00;58.90;;;;;;221221;1264;22541;-55
2022/09/10 16:01:33;;;;;;;2.40;1.00;;;25.00;59.00;;;;;;221318;1265;26687;-54
2022/09/10 16:06:43;;;;;;;1.90;1.00;;;25.00;59.30;;;;;;221404;1265;22516;-54
2022/09/10 16:11:53;;;;;;;1.60;1.10;;;25.00;59.10;;;;;;221397;1265;22544;-54
2022/09/10 16:16:59;;;;;;;2.10;1.00;;;25.00;59.10;;;;;;221284;1265;22537;-56
2022/09/10 16:22:17;;;;;;;2.00;1.10;;;24.90;59.00;;;;;;221127;1265;23967;-54
2022/09/10 16:27:30;;;;;;;1.70;0.90;;;24.90;59.40;;;;;;221312;1265;25348;-56
2022/09/10 16:32:39;;;;;;;2.10;1.20;;;24.90;59.60;;;;;;221312;1265;22620;-54
2022/09/10 16:37:49;;;;;;;2.40;1.20;;;24.90;59.20;;;;;;221261;1265;25423;-54
2022/09/10 16:43:14;;;;;;;1.30;0.90;;;24.90;59.60;;;;;;220931;1265;24500;-55
2022/09/10 16:48:20;;;;;;;1.90;1.10;;;24.90;59.60;;;;;;221154;1265;24262;-53
2022/09/10 16:53:24;;;;;;;2.00;1.20;;;24.90;59.40;;;;;;221295;1265;22550;-58
2022/09/10 16:58:28;;;;;;;1.90;1.20;;;24.90;59.50;;;;;;221495;1264;24353;-55
2022/09/10 17:03:43;;;;;;;2.00;1.20;;;24.80;59.60;;;;;;221427;1265;22531;-56
2022/09/10 17:08:57;;;;;;;2.30;0.90;;;24.80;59.50;;;;;;221312;1265;24341;-54
2022/09/10 17:14:10;;;;;;;28.00;1.60;;;24.80;59.70;;;;;;221076;1265;23117;-55
2022/09/10 17:19:25;;;;;;;2.40;1.20;;;24.80;59.70;;;;;;220997;1265;22546;-55
2022/09/10 17:24:29;;;;;;;2.00;1.20;;;24.80;59.60;;;;;;221354;1265;22774;-56
2022/09/10 17:29:34;;;;;;;1.60;1.10;;;24.80;59.90;;;;;;221513;1265;22525;-54
2022/09/10 17:34:38;;;;;;;1.80;1.20;;;24.70;59.60;;;;;;221375;1265;25624;-56
2022/09/10 17:39:43;;;;;;;1.60;1.00;;;24.70;60.00;;;;;;221317;1265;22545;-51
2022/09/10 17:44:48;;;;;;;1.40;1.00;;;24.70;59.70;;;;;;221383;1265;24255;-50
2022/09/10 17:49:55;;;;;;;2.30;1.10;;;24.70;59.70;;;;;;221437;1265;25386;-56
2022/09/10 17:55:23;;;;;;;1.80;1.00;;;24.70;60.00;;;;;;221343;1265;22693;-54
2022/09/10 18:00:29;;;;;;;1.90;1.20;;;24.70;59.80;;;;;;221154;1265;25361;-53
2022/09/10 18:05:38;;;;;;;1.60;1.10;;;24.70;59.40;;;;;;221312;1265;25298;-54
2022/09/10 18:10:42;;;;;;;3.30;1.10;;;24.70;59.70;;;;;;221328;1265;24309;-56
2022/09/10 18:15:56;;;;;;;1.50;1.00;;;24.70;59.80;;;;;;221221;1265;25384;-57
2022/09/10 18:21:19;;;;;;;2.50;1.40;;;24.70;60.20;;;;;;221188;1265;24266;-54
2022/09/10 18:26:29;;;;;;;1.90;1.10;;;24.60;59.80;;;;;;221586;1265;24253;-51
2022/09/10 18:31:37;;;;;;;3.30;1.20;;;24.70;59.90;;;;;;221227;1265;22630;-55
2022/09/10 18:37:11;;;;;;;4.60;1.70;;;24.60;59.80;;;;;;221183;1265;24787;-59
2022/09/10 18:42:18;;;;;;;5.10;1.60;;;24.60;60.10;;;;;;221285;1265;22679;-57
2022/09/10 18:47:28;;;;;;;8.80;2.00;;;24.60;60.50;;;;;;221359;1265;22969;-52
2022/09/10 18:52:49;;;;;;;15.00;2.90;;;24.70;61.50;;;;;;221454;1265;22540;-57
2022/09/10 18:58:10;;;;;;;15.20;2.60;;;24.70;61.20;;;;;;221050;1265;25305;-59
2022/09/10 19:03:18;;;;;;;10.40;2.40;;;24.60;60.70;;;;;;221145;1265;24503;-58
2022/09/10 19:08:24;;;;;;;15.90;3.20;;;24.60;61.80;;;;;;221377;1265;23901;-59
2022/09/10 19:13:36;;;;;;;11.20;2.20;;;24.50;61.80;;;;;;220980;1265;22560;-59
2022/09/10 19:18:42;;;;;;;11.20;2.40;;;24.50;61.40;;;;;;221157;1265;24646;-57
2022/09/10 19:23:48;;;;;;;13.30;2.70;;;24.50;63.60;;;;;;221254;1265;24334;-54
2022/09/10 19:28:57;;;;;;;7.70;2.00;;;24.50;64.20;;;;;;221005;1265;22527;-56
2022/09/10 19:34:09;;;;;;;7.20;2.30;;;24.60;63.90;;;;;;221050;1265;24527;-55
2022/09/10 19:39:30;;;;;;;9.20;2.50;;;24.60;64.20;;;;;;221070;1265;25403;-55
2022/09/10 19:44:53;;;;;;;14.50;3.20;;;24.60;64.10;;;;;;221269;1265;22548;-57
2022/09/10 19:50:01;;;;;;;8.40;2.60;;;24.60;64.70;;;;;;220603;1265;22947;-54
2022/09/10 19:55:06;;;;;;;9.20;2.70;;;24.50;64.80;;;;;;220968;1265;22559;-53
2022/09/10 20:00:11;;;;;;;9.30;2.90;;;24.50;63.60;;;;;;221087;1265;25234;-53
2022/09/10 20:05:36;;;;;;;11.30;2.50;;;24.40;63.10;;;;;;220621;1265;24249;-51
2022/09/10 20:10:50;;;;;;;10.00;2.90;;;24.30;64.00;;;;;;220890;1265;22545;-54
2022/09/10 20:15:54;;;;;;;7.70;2.40;;;24.30;63.10;;;;;;220974;1265;24310;-53
2022/09/10 20:21:10;;;;;;;6.10;3.00;;;24.40;63.00;;;;;;220948;1265;25349;-54
2022/09/10 20:26:19;;;;;;;7.10;2.50;;;24.40;64.80;;;;;;221003;1265;22615;-52
2022/09/10 20:31:26;;;;;;;10.70;2.70;;;24.40;65.30;;;;;;220790;1265;25646;-54
2022/09/10 20:36:43;;;;;;;9.30;3.40;;;24.50;65.40;;;;;;220886;1265;22522;-54
2022/09/10 20:41:52;;;;;;;8.60;3.20;;;24.40;65.90;;;;;;220795;1265;24275;-53
2022/09/10 20:46:55;;;;;;;7.30;3.00;;;24.50;67.10;;;;;;220805;1265;24186;-51
2022/09/10 20:52:00;;;;;;;7.30;2.90;;;24.60;67.90;;;;;;221025;1265;22646;-52
2022/09/10 20:57:03;;;;;;;6.60;2.80;;;24.50;67.50;;;;;;221003;1265;22543;-55
2022/09/10 21:02:10;;;;;;;8.20;3.00;;;24.50;67.20;;;;;;221054;1265;24041;-53
2022/09/10 21:07:15;;;;;;;7.20;2.70;;;24.50;66.90;;;;;;221084;1265;22579;-53
2022/09/10 21:12:19;;;;;;;6.60;2.60;;;24.40;66.70;;;;;;221100;1265;25486;-51
2022/09/10 21:17:25;;;;;;;9.20;2.80;;;24.40;66.40;;;;;;221446;1265;25222;-52
2022/09/10 21:22:30;;;;;;;7.40;2.70;;;24.40;65.10;;;;;;220717;1265;27013;-54
2022/09/10 21:27:35;;;;;;;4.60;2.40;;;24.30;64.30;;;;;;220814;1265;23904;-50
2022/09/10 21:32:39;;;;;;;5.70;2.40;;;24.30;64.10;;;;;;221119;1265;22546;-52
2022/09/10 21:37:42;;;;;;;4.90;2.50;;;24.30;64.60;;;;;;221246;1265;25441;-53
2022/09/10 21:42:48;;;;;;;6.80;2.80;;;24.30;63.10;;;;;;220932;1265;22518;-52
2022/09/10 21:47:52;;;;;;;5.20;2.20;;;24.30;63.70;;;;;;221379;1265;22648;-53
2022/09/10 21:53:00;;;;;;;5.70;2.60;;;24.30;64.00;;;;;;220696;1265;22545;-53
2022/09/10 21:58:04;;;;;;;4.30;2.60;;;24.30;63.60;;;;;;221078;1265;24099;-54
2022/09/10 22:03:09;;;;;;;5.40;2.40;;;24.30;63.50;;;;;;220879;1265;24086;-51
2022/09/10 22:08:15;;;;;;;4.10;2.40;;;24.30;63.40;;;;;;221015;1265;24474;-50
2022/09/10 22:13:22;;;;;;;4.10;2.60;;;24.30;63.50;;;;;;221418;1264;22682;-53
2022/09/10 22:18:33;;;;;;;4.00;2.90;;;24.30;63.90;;;;;;221231;1265;24356;-52
2022/09/10 22:23:52;;;;;;;6.10;2.90;;;24.30;62.30;;;;;;220908;1265;25363;-55
2022/09/10 22:29:01;;;;;;;6.60;3.10;;;24.30;63.00;;;;;;221099;1265;22540;-55
2022/09/10 22:34:14;;;;;;;5.60;2.90;;;24.20;62.70;;;;;;221075;1265;25376;-53
2022/09/10 22:39:21;;;;;;;5.30;2.50;;;24.20;62.50;;;;;;221102;1265;22545;-50
2022/09/10 22:44:26;;;;;;;6.60;2.80;;;24.20;62.50;;;;;;221323;1265;25237;-52
2022/09/10 22:49:30;;;;;;;4.50;2.30;;;24.20;62.60;;;;;;221240;1265;22799;-50
2022/09/10 22:54:34;;;;;;;5.40;2.50;;;24.20;62.80;;;;;;221348;1265;22566;-53
2022/09/10 22:59:37;;;;;;;4.30;2.50;;;24.20;63.00;;;;;;220964;1265;24264;-50
2022/09/10 23:04:41;;;;;;;4.30;2.50;;;24.10;63.20;;;;;;221093;1265;22533;-51
2022/09/10 23:09:48;;;;;;;3.70;2.30;;;24.20;63.60;;;;;;221177;1265;22548;-53
2022/09/10 23:14:52;;;;;;;3.80;2.50;;;24.10;64.00;;;;;;220700;1265;25658;-53
2022/09/10 23:19:57;;;;;;;4.30;2.40;;;24.10;64.00;;;;;;221163;1265;22700;-51
2022/09/10 23:25:01;;;;;;;4.70;2.10;;;24.10;64.10;;;;;;221235;1265;24220;-50
2022/09/10 23:30:07;;;;;;;3.40;1.90;;;24.10;64.00;;;;;;221152;1265;22541;-52
2022/09/10 23:35:11;;;;;;;4.40;2.40;;;24.10;64.10;;;;;;221205;1265;22541;-52
2022/09/10 23:40:17;;;;;;;4.60;2.00;;;24.10;63.80;;;;;;220985;1265;22807;-52
2022/09/10 23:45:26;;;;;;;3.60;2.00;;;24.10;63.80;;;;;;221555;1265;25343;-49
2022/09/10 23:50:30;;;;;;;4.80;2.20;;;24.10;63.70;;;;;;221387;1265;24889;-53
2022/09/10 23:55:35;;;;;;;4.10;2.00;;;24.10;63.80;;;;;;221132;1265;22704;-54
